Time;durP1;ratioP1;P1;durP2;ratioP2;P2;SDS_P1;SDS_P2;PMS_P1;PMS_P2;Temp;Humidity;BMP_temperature;BMP_pressure;BME280_temperature;BME280_humidity;BME280_pressure;Samples;Min_cycle;Max_cycle;Signal;HPM_P1;HPM_P2
2023/08/24 00:01:59;;;;;;;2.87;2.67;;;18.60;99.90;;;;;;5050121;28;20187;-70
2023/08/24 00:04:24;;;;;;;3.63;2.00;;;18.50;99.90;;;;;;5051471;28;20167;-70
2023/08/24 00:06:50;;;;;;;2.40;2.20;;;18.50;99.90;;;;;;5051124;28;20221;-71
2023/08/24 00:09:15;;;;;;;4.07;2.37;;;18.40;99.90;;;;;;5049918;28;20193;-70
2023/08/24 00:11:41;;;;;;;2.70;2.43;;;18.40;99.90;;;;;;5051347;28;20194;-70
2023/08/24 00:14:06;;;;;;;2.60;2.40;;;18.30;99.90;;;;;;5051330;28;20203;-71
2023/08/24 00:16:32;;;;;;;3.70;2.30;;;18.30;99.90;;;;;;5050005;28;20178;-71
2023/08/24 00:18:58;;;;;;;2.63;2.00;;;18.30;99.90;;;;;;5050198;28;20258;-71
2023/08/24 00:21:24;;;;;;;3.10;2.90;;;18.20;99.90;;;;;;5049994;28;20163;-70
2023/08/24 00:23:53;;;;;;;2.90;2.40;;;18.20;99.90;;;;;;5051350;28;20491;-71
2023/08/24 00:26:18;;;;;;;3.63;2.80;;;18.20;99.90;;;;;;5051051;28;20197;-70
2023/08/24 00:28:44;;;;;;;4.07;2.93;;;18.20;99.90;;;;;;5049982;28;20445;-70
2023/08/24 00:31:09;;;;;;;3.60;2.70;;;18.20;99.90;;;;;;5051238;28;20167;-70
2023/08/24 00:33:35;;;;;;;3.93;2.60;;;18.20;99.90;;;;;;5051182;28;20195;-70
2023/08/24 00:36:02;;;;;;;2.53;2.20;;;18.10;99.90;;;;;;5050958;28;20171;-70
2023/08/24 00:38:28;;;;;;;2.43;2.10;;;18.10;99.90;;;;;;5051369;28;20163;-71
2023/08/24 00:40:53;;;;;;;3.90;2.57;;;18.10;99.90;;;;;;5053982;28;20409;-70
2023/08/24 00:43:23;;;;;;;3.70;3.00;;;18.10;99.90;;;;;;5054674;28;20422;-71
2023/08/24 00:45:50;;;;;;;10.43;3.37;;;18.00;99.90;;;;;;5045151;28;20171;-70
2023/08/24 00:48:15;;;;;;;4.70;2.73;;;17.90;99.90;;;;;;5052631;28;20425;-70
2023/08/24 00:50:41;;;;;;;3.50;2.87;;;17.90;99.90;;;;;;5054550;28;20429;-70
2023/08/24 00:53:07;;;;;;;10.17;4.10;;;17.90;99.90;;;;;;5054420;28;20261;-71
2023/08/24 00:55:33;;;;;;;5.67;2.90;;;17.90;99.90;;;;;;5054292;28;20198;-70
2023/08/24 00:57:59;;;;;;;3.13;2.83;;;17.90;99.90;;;;;;5054319;28;20163;-70
2023/08/24 01:00:25;;;;;;;6.37;3.10;;;17.80;99.90;;;;;;5054399;28;20428;-71
2023/08/24 01:02:50;;;;;;;11.37;3.80;;;17.80;99.90;;;;;;5054235;28;20421;-70
2023/08/24 01:05:16;;;;;;;3.83;2.67;;;17.90;99.90;;;;;;5054101;28;20186;-70
2023/08/24 01:07:41;;;;;;;3.63;2.70;;;17.80;99.90;;;;;;5054157;28;20644;-70
2023/08/24 01:10:08;;;;;;;4.50;3.30;;;17.70;99.90;;;;;;5054296;28;20193;-70
2023/08/24 01:12:56;;;;;;;4.20;2.70;;;17.70;99.90;;;;;;5052865;28;20228;-70
2023/08/24 01:15:29;;;;;;;9.03;3.13;;;17.70;99.90;;;;;;5053816;28;20464;-70
2023/08/24 01:18:00;;;;;;;3.63;3.30;;;17.70;99.90;;;;;;5054146;28;20394;-70
2023/08/24 01:20:26;;;;;;;3.33;3.00;;;17.70;99.90;;;;;;5052733;28;20471;-70
2023/08/24 01:23:02;;;;;;;3.27;2.97;;;17.70;99.90;;;;;;5052815;28;20430;-70
2023/08/24 01:25:47;;;;;;;3.93;2.50;;;17.70;99.90;;;;;;5047079;28;20190;-71
2023/08/24 01:28:14;;;;;;;10.63;3.30;;;17.70;99.90;;;;;;5047401;28;20409;-71
2023/08/24 01:30:39;;;;;;;4.33;2.97;;;17.70;99.90;;;;;;5045501;28;20418;-71
2023/08/24 01:33:05;;;;;;;4.80;3.40;;;17.70;99.90;;;;;;5053692;28;20433;-70
2023/08/24 01:35:32;;;;;;;4.70;3.30;;;17.70;99.90;;;;;;5053484;28;20198;-70
2023/08/24 01:38:02;;;;;;;5.37;4.27;;;17.70;99.90;;;;;;5053700;28;20174;-70
2023/08/24 01:40:44;;;;;;;12.43;5.60;;;17.70;99.90;;;;;;5054048;28;20902;-70
2023/08/24 01:43:13;;;;;;;7.67;4.40;;;17.70;99.90;;;;;;5053222;28;20954;-70
2023/08/24 01:45:41;;;;;;;5.63;5.00;;;17.70;99.90;;;;;;5039900;28;20470;-71
2023/08/24 01:48:09;;;;;;;4.33;3.33;;;17.70;99.90;;;;;;5046297;28;20771;-70
2023/08/24 01:50:35;;;;;;;5.90;3.17;;;17.70;99.90;;;;;;5044706;28;20818;-70
2023/08/24 01:53:01;;;;;;;9.10;2.60;;;17.70;99.90;;;;;;5053148;28;20452;-70
2023/08/24 01:55:27;;;;;;;2.97;2.77;;;17.60;99.90;;;;;;5053111;28;20496;-70
2023/08/24 01:57:55;;;;;;;3.40;2.83;;;17.50;99.90;;;;;;5053333;28;20847;-70
2023/08/24 02:00:20;;;;;;;5.93;3.37;;;17.50;99.90;;;;;;5053144;28;20167;-70
2023/08/24 02:02:46;;;;;;;5.20;2.40;;;17.50;99.90;;;;;;5053164;28;20428;-70
2023/08/24 02:05:12;;;;;;;3.30;3.00;;;17.60;99.90;;;;;;5053001;28;20174;-70
2023/08/24 02:07:39;;;;;;;4.63;2.60;;;17.50;99.90;;;;;;5053066;28;20436;-70
2023/08/24 02:10:05;;;;;;;2.70;2.50;;;17.50;99.90;;;;;;5052947;28;20257;-71
2023/08/24 02:12:31;;;;;;;3.60;3.20;;;17.50;99.90;;;;;;5052868;28;20540;-70
2023/08/24 02:14:56;;;;;;;3.23;2.83;;;17.50;99.90;;;;;;5052681;28;20255;-71
2023/08/24 02:17:22;;;;;;;3.30;2.90;;;17.60;99.90;;;;;;5052853;28;20733;-71
2023/08/24 02:19:47;;;;;;;4.50;2.90;;;17.60;99.90;;;;;;5052833;28;20174;-71
2023/08/24 02:22:13;;;;;;;3.23;2.40;;;17.60;99.90;;;;;;5052687;28;20195;-71
2023/08/24 02:24:39;;;;;;;3.07;2.27;;;17.70;99.90;;;;;;5052739;28;20262;-71
2023/08/24 02:27:04;;;;;;;2.63;2.30;;;17.70;99.90;;;;;;5052471;28;20179;-71
2023/08/24 02:29:30;;;;;;;2.53;2.33;;;17.70;99.90;;;;;;5052730;28;20182;-71
2023/08/24 02:31:56;;;;;;;3.03;2.73;;;17.80;99.90;;;;;;5052611;28;20273;-71
2023/08/24 02:34:21;;;;;;;3.80;2.83;;;17.80;99.90;;;;;;5052617;28;20194;-71
2023/08/24 02:36:47;;;;;;;7.50;2.77;;;17.90;99.90;;;;;;5052391;28;20171;-71
2023/08/24 02:39:13;;;;;;;4.73;3.43;;;17.90;99.90;;;;;;5052599;28;20174;-71
2023/08/24 02:41:38;;;;;;;3.93;3.63;;;18.00;99.90;;;;;;5052394;28;20240;-71
2023/08/24 02:44:04;;;;;;;4.03;3.17;;;18.00;99.90;;;;;;5050642;28;20914;-71
2023/08/24 02:46:30;;;;;;;3.70;2.70;;;18.10;99.90;;;;;;5039155;28;20193;-71
2023/08/24 02:48:55;;;;;;;3.63;3.23;;;18.20;99.90;;;;;;5043991;28;20295;-69
2023/08/24 02:51:22;;;;;;;3.53;2.97;;;18.20;99.90;;;;;;5043781;28;20542;-69
2023/08/24 02:53:48;;;;;;;4.50;3.47;;;18.30;99.90;;;;;;5052140;28;20198;-70
2023/08/24 02:56:14;;;;;;;6.03;2.30;;;18.40;99.90;;;;;;5051814;28;20906;-70
2023/08/24 02:58:39;;;;;;;3.97;2.67;;;18.40;99.90;;;;;;5052401;28;20413;-70
2023/08/24 03:01:08;;;;;;;6.90;2.60;;;18.50;99.90;;;;;;5052285;28;20836;-70
2023/08/24 03:03:37;;;;;;;4.83;2.77;;;18.50;99.90;;;;;;5051562;28;20626;-71
2023/08/24 03:06:05;;;;;;;3.53;3.00;;;18.50;99.90;;;;;;5051866;28;20406;-70
2023/08/24 03:08:31;;;;;;;3.77;2.27;;;18.60;99.90;;;;;;5051929;28;20422;-71
2023/08/24 03:10:58;;;;;;;3.50;2.90;;;18.70;99.90;;;;;;5050210;28;20408;-70
2023/08/24 03:13:24;;;;;;;3.20;2.77;;;18.70;99.90;;;;;;5051797;28;20428;-70
2023/08/24 03:15:49;;;;;;;3.90;2.50;;;18.70;99.90;;;;;;5051685;28;20401;-70
2023/08/24 03:18:16;;;;;;;3.73;3.07;;;18.70;99.90;;;;;;5050674;28;20198;-70
2023/08/24 03:20:43;;;;;;;6.03;2.80;;;18.80;99.90;;;;;;5051868;28;20523;-70
2023/08/24 03:23:09;;;;;;;2.73;2.43;;;18.80;99.90;;;;;;5051632;28;20780;-70
2023/08/24 03:25:40;;;;;;;5.43;3.63;;;18.80;99.90;;;;;;5050286;28;20463;-70
2023/08/24 03:28:07;;;;;;;3.03;2.80;;;18.80;99.90;;;;;;5050519;28;20197;-71
2023/08/24 03:30:35;;;;;;;6.83;3.33;;;18.80;99.90;;;;;;5051609;28;20431;-71
2023/08/24 03:33:02;;;;;;;3.40;2.83;;;18.80;99.90;;;;;;5035692;28;20951;-71
2023/08/24 03:35:28;;;;;;;2.77;2.30;;;18.80;99.90;;;;;;5030267;28;20462;-71
2023/08/24 03:37:53;;;;;;;3.77;3.13;;;18.80;99.90;;;;;;5031367;28;20407;-70
2023/08/24 03:40:19;;;;;;;3.80;2.90;;;18.80;99.90;;;;;;5039011;28;20432;-71
2023/08/24 03:42:44;;;;;;;3.10;2.80;;;18.90;99.90;;;;;;5048319;28;20187;-70
2023/08/24 03:45:10;;;;;;;5.37;4.50;;;18.90;99.90;;;;;;5044067;28;20180;-71
2023/08/24 03:47:35;;;;;;;9.13;6.93;;;19.00;99.90;;;;;;5043735;28;20217;-71
2023/08/24 03:50:01;;;;;;;7.17;4.63;;;19.00;99.90;;;;;;5046054;28;20538;-70
2023/08/24 03:52:27;;;;;;;6.00;3.70;;;19.10;99.90;;;;;;5051530;28;20195;-70
2023/08/24 03:54:52;;;;;;;4.83;3.40;;;19.10;99.90;;;;;;5050306;28;20198;-70
2023/08/24 03:57:18;;;;;;;3.17;2.60;;;19.20;99.90;;;;;;5050023;28;20167;-70
2023/08/24 03:59:43;;;;;;;5.00;2.60;;;19.30;99.90;;;;;;5051656;28;20605;-70
2023/08/24 04:02:09;;;;;;;2.70;2.50;;;19.40;99.90;;;;;;5051371;28;20672;-68
2023/08/24 04:04:35;;;;;;;4.40;2.70;;;19.50;99.90;;;;;;5051400;28;20181;-69
2023/08/24 04:07:02;;;;;;;2.67;2.47;;;19.50;99.90;;;;;;5051277;28;20190;-71
2023/08/24 04:09:27;;;;;;;3.63;2.67;;;19.50;99.90;;;;;;5050286;28;20418;-69
2023/08/24 04:11:53;;;;;;;3.40;3.10;;;19.50;99.90;;;;;;5051675;28;20942;-69
2023/08/24 04:14:18;;;;;;;5.20;3.67;;;19.50;99.90;;;;;;5053552;28;20194;-69
2023/08/24 04:16:44;;;;;;;3.70;3.37;;;19.60;99.90;;;;;;5054800;28;20171;-69
2023/08/24 04:19:09;;;;;;;3.30;2.80;;;19.60;99.90;;;;;;5055255;28;20531;-70
2023/08/24 04:21:35;;;;;;;7.73;3.77;;;19.60;99.90;;;;;;5055034;28;20193;-69
2023/08/24 04:24:00;;;;;;;3.40;3.10;;;19.50;99.90;;;;;;5053847;28;20178;-69
2023/08/24 04:26:26;;;;;;;5.33;3.30;;;19.50;99.90;;;;;;5054834;28;20174;-69
2023/08/24 04:28:51;;;;;;;5.10;3.20;;;19.50;99.90;;;;;;5036286;28;20207;-70
2023/08/24 04:31:17;;;;;;;5.07;3.60;;;19.50;99.90;;;;;;5049139;28;20198;-70
2023/08/24 04:33:42;;;;;;;5.07;3.90;;;19.50;99.90;;;;;;5046433;28;20484;-69
2023/08/24 04:36:08;;;;;;;4.30;3.50;;;19.60;99.90;;;;;;5054426;28;20673;-69
2023/08/24 04:38:34;;;;;;;15.70;4.30;;;19.60;99.90;;;;;;5053534;28;20210;-69
2023/08/24 04:41:00;;;;;;;4.10;3.47;;;19.70;99.90;;;;;;5054742;28;20578;-70
2023/08/24 04:43:25;;;;;;;5.13;4.50;;;19.70;99.90;;;;;;5054701;28;20774;-70
2023/08/24 04:45:52;;;;;;;7.20;5.30;;;19.60;99.90;;;;;;5039846;28;20225;-70
2023/08/24 04:48:19;;;;;;;4.33;3.93;;;19.50;99.90;;;;;;5037779;28;20179;-70
2023/08/24 04:50:45;;;;;;;8.33;5.47;;;19.40;99.90;;;;;;5051240;28;20413;-70
2023/08/24 04:53:18;;;;;;;6.53;4.50;;;19.30;99.90;;;;;;5054309;28;20433;-70
2023/08/24 04:55:44;;;;;;;5.77;5.23;;;19.20;99.90;;;;;;5054115;28;20574;-70
2023/08/24 04:58:10;;;;;;;6.20;5.07;;;19.30;99.90;;;;;;5054539;28;20515;-70
2023/08/24 05:00:36;;;;;;;8.30;5.47;;;19.30;99.90;;;;;;5054388;28;20413;-70
2023/08/24 05:03:06;;;;;;;7.00;5.80;;;19.30;99.90;;;;;;5054339;28;20790;-70
2023/08/24 05:05:32;;;;;;;6.80;5.87;;;19.30;99.90;;;;;;5053950;28;20402;-70
2023/08/24 05:07:59;;;;;;;9.13;7.70;;;19.10;99.90;;;;;;5054182;28;20426;-70
2023/08/24 05:10:24;;;;;;;14.90;7.70;;;19.20;99.90;;;;;;5054239;28;20421;-70
2023/08/24 05:12:50;;;;;;;10.63;6.07;;;19.20;99.90;;;;;;5054227;28;20425;-70
2023/08/24 05:15:16;;;;;;;9.10;6.23;;;19.30;99.90;;;;;;5053772;28;20535;-70
2023/08/24 05:17:41;;;;;;;8.70;6.13;;;19.30;99.90;;;;;;5054028;28;20545;-70
2023/08/24 05:20:10;;;;;;;5.07;4.57;;;19.40;99.90;;;;;;5054048;28;20621;-70
2023/08/24 05:22:36;;;;;;;6.27;4.97;;;19.50;99.90;;;;;;5053860;28;20641;-70
2023/08/24 05:25:01;;;;;;;6.67;5.90;;;19.60;99.90;;;;;;5053034;28;20412;-70
2023/08/24 05:27:27;;;;;;;8.60;5.90;;;19.60;99.90;;;;;;5053755;28;20177;-70
2023/08/24 05:29:52;;;;;;;8.53;5.93;;;19.60;99.90;;;;;;5052423;28;20202;-70
2023/08/24 05:32:18;;;;;;;5.87;5.23;;;19.60;99.90;;;;;;5053689;28;20187;-70
2023/08/24 05:34:45;;;;;;;7.53;6.17;;;19.60;99.90;;;;;;5053525;28;20203;-70
2023/08/24 05:37:11;;;;;;;6.13;4.93;;;19.60;99.90;;;;;;5045610;28;20171;-70
2023/08/24 05:39:36;;;;;;;6.30;5.70;;;19.60;99.90;;;;;;5043081;28;20433;-70
2023/08/24 05:42:02;;;;;;;5.70;5.20;;;19.60;99.90;;;;;;5045148;28;20194;-70
2023/08/24 05:44:27;;;;;;;5.80;5.20;;;19.70;99.90;;;;;;5051660;28;20535;-70
2023/08/24 05:46:53;;;;;;;5.80;5.20;;;19.70;99.90;;;;;;5037469;28;20182;-70
2023/08/24 05:49:18;;;;;;;6.30;5.30;;;19.70;99.90;;;;;;5044030;28;20175;-70
2023/08/24 05:51:44;;;;;;;5.90;5.30;;;19.80;99.90;;;;;;5045137;28;20230;-70
2023/08/24 05:54:10;;;;;;;8.43;5.60;;;19.70;99.90;;;;;;5053573;28;20226;-70
2023/08/24 05:56:35;;;;;;;7.90;5.07;;;19.80;99.90;;;;;;5052923;28;20179;-70
2023/08/24 05:59:01;;;;;;;8.93;5.17;;;19.80;99.90;;;;;;5053377;28;20220;-70
2023/08/24 06:01:26;;;;;;;5.53;4.30;;;19.80;99.90;;;;;;5052829;28;20240;-70
2023/08/24 06:03:52;;;;;;;5.60;4.73;;;20.00;99.90;;;;;;5053136;28;20640;-70
2023/08/24 06:06:17;;;;;;;5.97;5.07;;;20.00;99.90;;;;;;5052688;28;20545;-70
2023/08/24 06:08:43;;;;;;;6.50;5.13;;;20.20;99.90;;;;;;5053037;28;20214;-70
2023/08/24 06:11:09;;;;;;;4.70;4.30;;;20.30;99.90;;;;;;5053136;28;20167;-70
2023/08/24 06:13:34;;;;;;;6.10;5.10;;;20.40;99.90;;;;;;5052905;28;20182;-70
2023/08/24 06:16:01;;;;;;;5.17;4.70;;;20.60;99.90;;;;;;5052810;28;20401;-70
2023/08/24 06:18:27;;;;;;;6.97;5.10;;;20.80;99.90;;;;;;5051695;28;20163;-70
2023/08/24 06:20:53;;;;;;;8.80;5.23;;;21.30;99.90;;;;;;5052876;28;20470;-70
2023/08/24 06:23:19;;;;;;;7.90;5.57;;;21.80;99.90;;;;;;5052726;28;20187;-70
2023/08/24 06:25:45;;;;;;;6.00;5.20;;;22.50;99.90;;;;;;5051301;28;20945;-70
2023/08/24 06:28:11;;;;;;;8.70;5.80;;;23.50;99.90;;;;;;5051406;28;20672;-70
2023/08/24 06:30:38;;;;;;;5.80;5.30;;;24.50;99.90;;;;;;5052546;28;20417;-70
2023/08/24 06:33:04;;;;;;;8.27;4.63;;;25.30;99.90;;;;;;5051575;28;20437;-70
2023/08/24 06:35:30;;;;;;;9.83;4.63;;;25.90;99.90;;;;;;5052243;28;20449;-70
2023/08/24 06:37:55;;;;;;;9.07;4.70;;;26.20;99.90;;;;;;5050309;28;20628;-71
2023/08/24 06:40:21;;;;;;;4.37;3.97;;;26.60;99.90;;;;;;5052625;28;20163;-70
2023/08/24 06:42:46;;;;;;;6.03;4.00;;;26.90;99.90;;;;;;5051083;28;20187;-70
2023/08/24 06:45:12;;;;;;;5.20;4.63;;;26.90;99.90;;;;;;5048014;28;20175;-70
2023/08/24 06:47:39;;;;;;;6.57;5.20;;;26.80;99.90;;;;;;5051880;28;20163;-70
2023/08/24 06:50:06;;;;;;;6.43;4.40;;;27.10;99.90;;;;;;5040919;28;20709;-70
2023/08/24 06:52:32;;;;;;;6.93;4.47;;;27.80;99.90;;;;;;5048508;28;20444;-70
2023/08/24 06:54:57;;;;;;;4.80;4.40;;;27.60;99.90;;;;;;5051744;28;20543;-70
2023/08/24 06:57:23;;;;;;;7.40;4.13;;;27.70;99.90;;;;;;5052049;28;20232;-70
2023/08/24 06:59:49;;;;;;;5.93;5.37;;;27.30;99.90;;;;;;5043543;28;20254;-70
2023/08/24 07:02:17;;;;;;;4.83;4.43;;;26.60;99.90;;;;;;5046566;28;20198;-71
2023/08/24 07:04:43;;;;;;;5.40;4.90;;;26.10;99.90;;;;;;5051994;28;20437;-71
2023/08/24 07:07:08;;;;;;;7.40;4.60;;;26.60;99.90;;;;;;5051825;28;20464;-70
2023/08/24 07:09:35;;;;;;;6.37;5.17;;;27.60;99.90;;;;;;5052052;28;20166;-72
2023/08/24 07:12:01;;;;;;;9.13;4.80;;;28.30;99.90;;;;;;5051971;28;20189;-71
2023/08/24 07:14:27;;;;;;;7.40;4.73;;;29.00;99.90;;;;;;5051827;28;20452;-72
2023/08/24 07:16:52;;;;;;;5.20;3.80;;;29.70;99.90;;;;;;5051695;28;20405;-71
2023/08/24 07:19:18;;;;;;;5.20;4.70;;;30.50;99.90;;;;;;5051911;28;20190;-70
2023/08/24 07:21:43;;;;;;;3.87;3.50;;;31.70;95.50;;;;;;5038792;28;20272;-71
2023/08/24 07:24:09;;;;;;;5.77;4.00;;;32.40;90.10;;;;;;5048463;28;20174;-71
2023/08/24 07:26:34;;;;;;;7.10;4.80;;;33.20;78.60;;;;;;5051351;28;20207;-70
2023/08/24 07:29:00;;;;;;;5.20;4.70;;;33.40;68.20;;;;;;5051792;28;20175;-70
2023/08/24 07:31:26;;;;;;;5.00;4.20;;;33.50;65.80;;;;;;5051810;28;20628;-70
2023/08/24 07:33:51;;;;;;;5.10;4.60;;;33.10;65.30;;;;;;5051648;28;20219;-68
2023/08/24 07:36:18;;;;;;;4.23;3.90;;;31.80;68.30;;;;;;5051501;28;20174;-68
2023/08/24 07:38:46;;;;;;;8.20;3.83;;;30.90;77.00;;;;;;5051798;28;20162;-68
2023/08/24 07:41:12;;;;;;;6.10;3.90;;;30.60;81.00;;;;;;5051808;28;20401;-69
2023/08/24 07:43:37;;;;;;;5.07;3.70;;;31.00;79.10;;;;;;5051587;28;20424;-70
2023/08/24 07:46:03;;;;;;;7.10;4.20;;;31.70;72.40;;;;;;5038878;28;20168;-70
2023/08/24 07:48:29;;;;;;;6.90;3.53;;;31.40;68.50;;;;;;5040126;28;20171;-70
2023/08/24 07:50:55;;;;;;;6.00;4.17;;;31.00;68.80;;;;;;5047319;28;20413;-70
2023/08/24 07:53:21;;;;;;;4.93;4.13;;;30.60;72.70;;;;;;5040718;28;20685;-69
2023/08/24 07:55:47;;;;;;;6.03;3.80;;;29.90;75.30;;;;;;5053376;28;20249;-70
2023/08/24 07:58:12;;;;;;;4.93;4.10;;;29.70;79.80;;;;;;5055532;28;20652;-69
2023/08/24 08:00:39;;;;;;;5.73;5.13;;;29.30;87.20;;;;;;5055465;28;20441;-70
2023/08/24 08:03:04;;;;;;;5.87;4.27;;;28.40;95.40;;;;;;5055514;28;20262;-70
2023/08/24 08:05:30;;;;;;;4.67;3.90;;;28.30;99.10;;;;;;5053994;28;20828;-70
2023/08/24 08:07:55;;;;;;;5.27;4.80;;;28.30;99.90;;;;;;5042329;28;20214;-70
2023/08/24 08:10:21;;;;;;;3.93;3.70;;;28.30;99.90;;;;;;5054306;28;20171;-70
2023/08/24 08:12:47;;;;;;;4.57;3.60;;;28.40;99.90;;;;;;5054997;28;20191;-70
2023/08/24 08:15:12;;;;;;;6.10;3.93;;;28.40;99.90;;;;;;5054830;28;20201;-70
2023/08/24 08:17:38;;;;;;;4.97;3.20;;;28.40;99.90;;;;;;5055186;28;20171;-70
2023/08/24 08:20:04;;;;;;;4.27;3.87;;;28.90;99.90;;;;;;5055099;28;20163;-70
2023/08/24 08:22:29;;;;;;;4.03;3.33;;;29.50;99.90;;;;;;5055189;28;20183;-70
2023/08/24 08:24:58;;;;;;;4.80;2.70;;;30.10;99.90;;;;;;5054845;28;20405;-71
2023/08/24 08:27:24;;;;;;;4.20;3.03;;;30.70;99.90;;;;;;5054833;28;20213;-70
2023/08/24 08:29:50;;;;;;;3.70;3.40;;;31.30;95.10;;;;;;5053903;28;21118;-70
2023/08/24 08:32:15;;;;;;;4.30;3.83;;;31.90;88.60;;;;;;5054849;28;20186;-71
2023/08/24 08:34:41;;;;;;;9.03;4.00;;;32.60;80.90;;;;;;5054647;28;20483;-71
2023/08/24 08:37:06;;;;;;;5.20;3.60;;;33.20;72.10;;;;;;5047621;28;20202;-71
2023/08/24 08:39:32;;;;;;;3.57;3.27;;;33.90;68.10;;;;;;5054683;28;20175;-70
2023/08/24 08:41:58;;;;;;;4.10;3.80;;;34.70;62.10;;;;;;5046166;28;20194;-69
2023/08/24 08:44:29;;;;;;;3.30;2.90;;;35.90;56.80;;;;;;5054691;28;20409;-70
2023/08/24 08:46:57;;;;;;;3.53;3.23;;;36.70;55.10;;;;;;5054349;28;20525;-71
2023/08/24 08:49:22;;;;;;;4.30;3.40;;;37.70;50.90;;;;;;5054573;28;20782;-71
2023/08/24 08:51:49;;;;;;;4.20;3.80;;;38.40;46.90;;;;;;5054388;28;20413;-71
2023/08/24 08:54:14;;;;;;;5.10;3.00;;;38.60;44.50;;;;;;5045408;28;20199;-71
2023/08/24 08:56:40;;;;;;;3.47;3.17;;;39.60;44.10;;;;;;5038634;28;20782;-71
2023/08/24 08:59:08;;;;;;;4.90;3.23;;;40.40;41.30;;;;;;5043462;28;20225;-72
2023/08/24 09:01:33;;;;;;;2.83;2.63;;;41.20;40.30;;;;;;5049643;28;20749;-71
2023/08/24 09:04:00;;;;;;;4.03;2.93;;;42.10;38.80;;;;;;5052984;28;20413;-72
2023/08/24 09:06:26;;;;;;;3.53;3.13;;;42.10;36.60;;;;;;5052357;28;20216;-71
2023/08/24 09:08:52;;;;;;;3.73;3.03;;;42.20;36.10;;;;;;5053104;28;20400;-72
2023/08/24 09:11:18;;;;;;;4.00;3.13;;;42.80;34.80;;;;;;5047780;28;20214;-71
2023/08/24 09:13:45;;;;;;;5.03;2.80;;;43.60;34.80;;;;;;5051466;28;20409;-72
2023/08/24 09:16:15;;;;;;;3.03;2.73;;;43.40;32.30;;;;;;5051462;28;20167;-72
2023/08/24 09:18:44;;;;;;;3.40;3.10;;;43.50;32.40;;;;;;5053938;28;20384;-71
2023/08/24 09:21:11;;;;;;;4.00;3.13;;;42.80;31.90;;;;;;5044846;28;20501;-72
2023/08/24 09:23:38;;;;;;;2.50;2.30;;;42.00;32.80;;;;;;5042192;28;20437;-71
2023/08/24 09:26:04;;;;;;;4.23;3.83;;;42.00;34.20;;;;;;5052134;28;20960;-71
2023/08/24 09:28:30;;;;;;;3.07;2.87;;;42.00;33.80;;;;;;5053863;28;20762;-71
2023/08/24 09:30:56;;;;;;;3.00;2.73;;;41.90;34.00;;;;;;5053814;28;20376;-71
2023/08/24 09:33:25;;;;;;;3.57;2.80;;;41.40;33.90;;;;;;5053610;28;20187;-71
2023/08/24 09:36:01;;;;;;;4.27;3.07;;;42.00;34.00;;;;;;5053409;28;20194;-71
2023/08/24 09:38:28;;;;;;;3.00;2.70;;;41.60;33.70;;;;;;5053664;28;20812;-71
2023/08/24 09:40:55;;;;;;;3.50;2.90;;;41.40;33.80;;;;;;5053497;28;20380;-72
2023/08/24 09:43:21;;;;;;;4.33;2.87;;;41.00;33.50;;;;;;5053455;28;20421;-71
2023/08/24 09:45:55;;;;;;;3.10;2.80;;;40.70;33.80;;;;;;5052136;28;20483;-71
2023/08/24 09:48:21;;;;;;;3.50;3.20;;;40.50;33.50;;;;;;5053443;28;20777;-71
2023/08/24 09:50:49;;;;;;;3.03;2.83;;;39.80;33.80;;;;;;5053640;28;20911;-71
2023/08/24 09:53:22;;;;;;;3.67;2.93;;;39.10;34.60;;;;;;5053323;28;20425;-71
2023/08/24 09:56:08;;;;;;;4.33;3.00;;;38.70;36.10;;;;;;5053051;28;20532;-71
2023/08/24 09:58:34;;;;;;;2.90;2.70;;;38.30;35.70;;;;;;5053322;28;20424;-71
2023/08/24 10:01:01;;;;;;;4.37;3.30;;;38.20;35.90;;;;;;5053227;28;20397;-70
2023/08/24 10:03:30;;;;;;;3.23;2.90;;;38.10;35.80;;;;;;5051830;28;20678;-71
2023/08/24 10:06:03;;;;;;;3.27;2.97;;;37.80;36.20;;;;;;5053013;28;20820;-70
2023/08/24 10:08:37;;;;;;;3.07;2.87;;;37.60;36.80;;;;;;5053143;28;20824;-71
2023/08/24 10:11:03;;;;;;;2.93;2.73;;;37.40;37.70;;;;;;5052977;28;20401;-71
2023/08/24 10:13:49;;;;;;;2.90;2.70;;;37.10;37.10;;;;;;5053003;28;20426;-71
2023/08/24 10:16:18;;;;;;;4.20;3.40;;;36.80;37.50;;;;;;5052800;28;20397;-71
2023/08/24 10:18:44;;;;;;;3.97;3.07;;;36.40;38.30;;;;;;5053016;28;20725;-70
2023/08/24 10:21:11;;;;;;;4.60;3.73;;;35.90;38.00;;;;;;5053003;28;20425;-70
2023/08/24 10:23:38;;;;;;;5.93;3.07;;;35.50;38.60;;;;;;5052788;28;20508;-71
2023/08/24 10:26:09;;;;;;;3.37;3.07;;;35.00;39.20;;;;;;5052550;28;20488;-70
2023/08/24 10:28:36;;;;;;;2.90;2.60;;;34.50;40.10;;;;;;5046885;28;20497;-70
2023/08/24 10:31:03;;;;;;;4.77;3.07;;;34.20;40.90;;;;;;5032773;28;20406;-70
2023/08/24 10:33:30;;;;;;;4.33;2.90;;;33.70;41.40;;;;;;5032739;28;20426;-71
2023/08/24 10:35:56;;;;;;;4.73;3.20;;;33.40;42.60;;;;;;5032332;28;20458;-70
2023/08/24 10:38:28;;;;;;;3.63;3.03;;;33.10;43.10;;;;;;5032771;28;20413;-71
2023/08/24 10:41:01;;;;;;;2.93;2.60;;;33.20;43.00;;;;;;5032570;28;20718;-70
2023/08/24 10:43:26;;;;;;;3.40;3.10;;;33.20;42.90;;;;;;5032541;28;20422;-71
2023/08/24 10:45:56;;;;;;;3.10;2.83;;;32.90;43.80;;;;;;5032215;28;20829;-70
2023/08/24 10:48:23;;;;;;;3.20;2.90;;;32.90;44.30;;;;;;5032394;28;20575;-71
2023/08/24 10:51:14;;;;;;;3.30;2.73;;;33.00;44.60;;;;;;5031019;28;20445;-71
2023/08/24 10:54:00;;;;;;;3.50;3.20;;;33.00;45.00;;;;;;5032263;28;20499;-70
2023/08/24 10:56:39;;;;;;;5.53;3.40;;;33.00;44.90;;;;;;5031956;28;20390;-71
2023/08/24 10:59:14;;;;;;;5.63;2.50;;;33.00;45.10;;;;;;5030826;28;20460;-70
2023/08/24 11:01:53;;;;;;;4.10;2.60;;;33.20;45.20;;;;;;5032022;28;20945;-70
2023/08/24 11:04:19;;;;;;;2.70;2.50;;;33.20;45.90;;;;;;5032166;28;20490;-71
2023/08/24 11:06:56;;;;;;;3.30;2.67;;;32.90;45.20;;;;;;5031694;28;20430;-71
2023/08/24 11:09:23;;;;;;;3.30;3.00;;;32.60;46.40;;;;;;5032056;28;20483;-70
2023/08/24 11:11:57;;;;;;;3.03;2.63;;;32.40;46.40;;;;;;5031932;28;20433;-70
2023/08/24 11:14:25;;;;;;;3.00;2.27;;;32.30;47.40;;;;;;5031862;28;20457;-70
2023/08/24 11:16:51;;;;;;;3.00;2.23;;;32.20;47.50;;;;;;5031770;28;20830;-71
2023/08/24 11:19:17;;;;;;;4.90;2.67;;;32.10;47.90;;;;;;5032009;28;20485;-71
2023/08/24 11:21:44;;;;;;;3.17;2.60;;;32.00;47.90;;;;;;5032004;28;20183;-71
2023/08/24 11:24:12;;;;;;;3.20;2.90;;;31.80;48.10;;;;;;5030311;28;20933;-70
2023/08/24 11:26:48;;;;;;;2.60;2.40;;;31.70;48.90;;;;;;5031576;28;20420;-71
2023/08/24 11:29:21;;;;;;;5.23;3.20;;;31.50;49.00;;;;;;5031826;28;20402;-71
2023/08/24 11:31:47;;;;;;;11.73;2.50;;;31.30;49.30;;;;;;5031824;28;20422;-71
2023/08/24 11:34:15;;;;;;;6.63;3.30;;;31.10;49.50;;;;;;5030313;28;20456;-70
2023/08/24 11:36:43;;;;;;;6.70;3.43;;;31.00;49.50;;;;;;5031489;28;20949;-71
2023/08/24 11:39:19;;;;;;;6.67;2.70;;;30.80;50.10;;;;;;5031811;28;20577;-70
2023/08/24 11:41:56;;;;;;;3.80;3.20;;;30.60;50.70;;;;;;5031885;28;20926;-70
2023/08/24 11:44:21;;;;;;;9.30;3.13;;;30.50;51.00;;;;;;5031925;28;20410;-70
2023/08/24 11:46:47;;;;;;;5.47;3.60;;;30.20;51.60;;;;;;5031610;28;20915;-71
2023/08/24 11:49:13;;;;;;;2.77;2.53;;;30.00;52.70;;;;;;5031800;28;20183;-72
2023/08/24 11:51:38;;;;;;;3.60;2.97;;;29.80;52.70;;;;;;5031667;28;20191;-70
2023/08/24 11:54:04;;;;;;;2.77;2.50;;;29.80;53.20;;;;;;5031654;28;20191;-70
2023/08/24 11:56:29;;;;;;;2.73;2.43;;;29.70;53.70;;;;;;5031559;28;20164;-70
2023/08/24 11:58:55;;;;;;;5.00;2.63;;;29.60;54.40;;;;;;5031720;28;20195;-70
2023/08/24 12:01:21;;;;;;;3.80;2.97;;;29.50;55.50;;;;;;5031635;28;20210;-70
2023/08/24 12:03:46;;;;;;;2.90;2.60;;;29.60;55.40;;;;;;5031694;28;20176;-70
2023/08/24 12:06:17;;;;;;;3.80;2.57;;;29.70;55.90;;;;;;5031149;28;20170;-70
2023/08/24 12:08:46;;;;;;;3.70;2.70;;;29.70;56.30;;;;;;5031708;28;20217;-70
2023/08/24 12:11:17;;;;;;;2.77;2.50;;;29.60;56.40;;;;;;5030305;28;20412;-70
2023/08/24 12:13:48;;;;;;;6.10;3.20;;;29.60;57.10;;;;;;5030204;28;20438;-70
2023/08/24 12:16:16;;;;;;;3.80;3.13;;;29.60;59.30;;;;;;5031373;28;20407;-72
2023/08/24 12:18:59;;;;;;;4.50;3.87;;;29.50;63.90;;;;;;5031501;28;20433;-69
2023/08/24 12:21:26;;;;;;;3.57;3.27;;;29.50;68.20;;;;;;5031460;28;20456;-72
2023/08/24 12:23:55;;;;;;;3.37;2.90;;;29.20;93.80;;;;;;5031542;28;20907;-70
2023/08/24 12:26:20;;;;;;;4.57;3.20;;;28.80;99.90;;;;;;5031139;28;20481;-70
2023/08/24 12:28:52;;;;;;;4.83;3.80;;;28.40;99.90;;;;;;5031387;28;20492;-70
2023/08/24 12:31:18;;;;;;;5.43;3.70;;;28.00;99.90;;;;;;5031246;28;20210;-70
2023/08/24 12:33:44;;;;;;;7.53;3.83;;;27.60;99.90;;;;;;5031326;28;20811;-71
2023/08/24 12:36:10;;;;;;;4.50;2.87;;;27.30;99.90;;;;;;5033105;28;20460;-71
2023/08/24 12:38:35;;;;;;;4.67;3.13;;;27.00;99.90;;;;;;5033707;28;20437;-70
2023/08/24 12:41:01;;;;;;;5.63;3.90;;;26.80;99.90;;;;;;5035036;28;20164;-70
2023/08/24 12:43:27;;;;;;;5.53;3.40;;;26.60;99.90;;;;;;5034749;28;20254;-70
2023/08/24 12:45:52;;;;;;;5.13;3.60;;;26.40;99.90;;;;;;5034537;28;20164;-70